Time;durP1;ratioP1;P1;durP2;ratioP2;P2;SDS_P1;SDS_P2;PMS_P1;PMS_P2;Temp;Humidity;BMP_temperature;BMP_pressure;BME280_temperature;BME280_humidity;BME280_pressure;Samples;Min_cycle;Max_cycle;Signal;HPM_P1;HPM_P2
2022/05/30 00:00:00;;;;;;;10.07;2.42;;;;;;;;;;5014239;28;91801;-72
2022/05/30 00:02:27;;;;;;;6.25;1.70;;;;;;;;;;5012433;28;93272;-72
2022/05/30 00:04:53;;;;;;;13.63;2.35;;;;;;;;;;5007664;28;93423;-72
2022/05/30 00:07:19;;;;;;;5.57;1.95;;;;;;;;;;5008829;28;94765;-72
2022/05/30 00:09:47;;;;;;;7.38;2.10;;;;;;;;;;5013151;28;98583;-72
2022/05/30 00:12:13;;;;;;;9.23;2.28;;;;;;;;;;5010897;28;93664;-72
2022/05/30 00:14:40;;;;;;;7.13;2.00;;;;;;;;;;4995964;28;92543;-72
2022/05/30 00:17:07;;;;;;;10.52;2.58;;;;;;;;;;5015412;28;93448;-72
2022/05/30 00:19:37;;;;;;;6.30;1.90;;;;;;;;;;5014287;28;92370;-72
2022/05/30 00:22:04;;;;;;;9.82;2.35;;;;;;;;;;4994767;28;94361;-72
2022/05/30 00:24:31;;;;;;;5.30;2.00;;;;;;;;;;5028521;28;92498;-72
2022/05/30 00:26:57;;;;;;;6.70;1.83;;;;;;;;;;5016260;28;92515;-73
2022/05/30 00:29:23;;;;;;;7.28;2.42;;;;;;;;;;5012647;28;93839;-72
2022/05/30 00:31:50;;;;;;;4.20;1.67;;;;;;;;;;5005891;28;96014;-72
2022/05/30 00:34:20;;;;;;;7.93;2.00;;;;;;;;;;5013983;28;92484;-72
2022/05/30 00:36:46;;;;;;;6.07;2.20;;;;;;;;;;5014401;28;93287;-72
2022/05/30 00:39:12;;;;;;;6.78;1.60;;;;;;;;;;5014778;28;93419;-72
2022/05/30 00:41:38;;;;;;;6.82;2.03;;;;;;;;;;5013506;28;93429;-72
2022/05/30 00:44:05;;;;;;;9.07;2.05;;;;;;;;;;5013943;28;93194;-72
2022/05/30 00:46:31;;;;;;;8.02;1.80;;;;;;;;;;5007409;28;92604;-73
2022/05/30 00:49:00;;;;;;;9.15;2.22;;;;;;;;;;4996136;28;93129;-72
2022/05/30 00:51:32;;;;;;;10.32;1.77;;;;;;;;;;5016404;28;93518;-72
2022/05/30 00:53:59;;;;;;;10.00;2.70;;;;;;;;;;5015219;28;93116;-72
2022/05/30 00:56:28;;;;;;;6.05;1.73;;;;;;;;;;5015645;28;94773;-73
2022/05/30 00:58:55;;;;;;;7.03;1.95;;;;;;;;;;5014541;28;93854;-72
2022/05/30 01:01:21;;;;;;;5.22;1.80;;;;;;;;;;5001899;28;92805;-72
2022/05/30 01:06:38;;;;;;;8.07;1.88;;;;;;;;;;5016711;28;92547;-71
2022/05/30 01:09:14;;;;;;;3.00;1.38;;;;;;;;;;5015727;28;93344;-72
2022/05/30 01:11:51;;;;;;;9.23;1.70;;;;;;;;;;5015916;28;93451;-72
2022/05/30 01:14:18;;;;;;;6.90;1.95;;;;;;;;;;4988524;28;91783;-72
2022/05/30 01:16:44;;;;;;;6.70;1.55;;;;;;;;;;5016035;28;92604;-72
2022/05/30 01:19:26;;;;;;;4.10;1.70;;;;;;;;;;5010735;28;94461;-72
2022/05/30 01:21:55;;;;;;;5.43;2.20;;;;;;;;;;4989707;28;95018;-72
2022/05/30 01:24:25;;;;;;;6.05;1.88;;;;;;;;;;4999889;28;93686;-72
2022/05/30 01:27:03;;;;;;;7.07;1.92;;;;;;;;;;5015021;28;92509;-72
2022/05/30 01:29:36;;;;;;;7.85;1.80;;;;;;;;;;5015005;28;93551;-72
2022/05/30 01:32:02;;;;;;;7.28;2.17;;;;;;;;;;5010623;28;93768;-72
2022/05/30 01:34:29;;;;;;;10.73;1.90;;;;;;;;;;4985648;28;92548;-72
2022/05/30 01:36:55;;;;;;;6.03;1.85;;;;;;;;;;5003167;28;93717;-72
2022/05/30 01:39:21;;;;;;;5.10;1.98;;;;;;;;;;5014783;28;92550;-73
2022/05/30 01:41:48;;;;;;;3.20;1.30;;;;;;;;;;5015580;28;92492;-72
2022/05/30 01:44:14;;;;;;;8.27;1.40;;;;;;;;;;5018201;28;92840;-72
2022/05/30 01:46:41;;;;;;;5.60;1.50;;;;;;;;;;4996686;28;94876;-72
2022/05/30 01:49:07;;;;;;;5.28;1.73;;;;;;;;;;4994992;28;95496;-71
2022/05/30 01:51:33;;;;;;;3.80;1.00;;;;;;;;;;5011804;28;93821;-72
2022/05/30 01:54:00;;;;;;;4.10;1.55;;;;;;;;;;4997485;28;92789;-72
2022/05/30 01:56:26;;;;;;;4.68;1.70;;;;;;;;;;5012506;28;96160;-72
2022/05/30 01:58:52;;;;;;;4.32;1.13;;;;;;;;;;4996568;28;94542;-72
2022/05/30 02:01:20;;;;;;;7.07;1.58;;;;;;;;;;5013980;28;92652;-72
2022/05/30 02:03:47;;;;;;;3.60;1.67;;;;;;;;;;5009522;28;93133;-72
2022/05/30 02:06:14;;;;;;;3.92;1.30;;;;;;;;;;5010154;28;94523;-72
2022/05/30 02:08:41;;;;;;;9.68;1.27;;;;;;;;;;5009817;28;93478;-72
2022/05/30 02:11:10;;;;;;;8.70;2.00;;;;;;;;;;5014516;28;96901;-72
2022/05/30 02:13:37;;;;;;;3.92;1.40;;;;;;;;;;5012562;28;92441;-72
2022/05/30 02:18:50;;;;;;;5.32;2.00;;;;;;;;;;5010074;28;93861;-72
2022/05/30 02:21:16;;;;;;;6.55;1.70;;;;;;;;;;5012479;28;92785;-72
2022/05/30 02:23:43;;;;;;;4.97;2.22;;;;;;;;;;5015923;28;93175;-72
2022/05/30 02:26:10;;;;;;;3.75;1.80;;;;;;;;;;5015567;28;95063;-72
2022/05/30 02:28:36;;;;;;;5.47;1.90;;;;;;;;;;5013032;28;92089;-72
2022/05/30 02:31:03;;;;;;;6.05;2.10;;;;;;;;;;4996662;28;93407;-72
2022/05/30 02:38:59;;;;;;;5.93;2.17;;;;;;;;;;5012471;28;93423;-72
2022/05/30 02:41:25;;;;;;;5.68;2.10;;;;;;;;;;4997186;28;92495;-72
2022/05/30 02:43:52;;;;;;;5.38;2.00;;;;;;;;;;4997723;28;93048;-72
2022/05/30 02:46:18;;;;;;;11.05;2.22;;;;;;;;;;5014717;28;93378;-72
2022/05/30 02:48:45;;;;;;;6.75;2.22;;;;;;;;;;5013027;28;92447;-72
2022/05/30 02:51:11;;;;;;;9.98;1.90;;;;;;;;;;5017134;28;93223;-72
2022/05/30 02:53:38;;;;;;;4.00;1.80;;;;;;;;;;4995828;28;91781;-73
2022/05/30 02:56:11;;;;;;;7.00;2.17;;;;;;;;;;5011211;28;92880;-72
2022/05/30 02:58:37;;;;;;;3.22;1.70;;;;;;;;;;5013163;28;93603;-72
2022/05/30 03:01:04;;;;;;;4.72;1.90;;;;;;;;;;5012670;28;94861;-72
2022/05/30 03:03:30;;;;;;;8.63;1.70;;;;;;;;;;4996523;28;95936;-72
2022/05/30 03:05:57;;;;;;;5.05;2.00;;;;;;;;;;4995857;28;93480;-72
2022/05/30 03:08:23;;;;;;;2.25;1.40;;;;;;;;;;5014219;28;92538;-72
2022/05/30 03:10:50;;;;;;;4.28;1.80;;;;;;;;;;4996324;28;93474;-72
2022/05/30 03:13:16;;;;;;;3.72;1.73;;;;;;;;;;4999343;28;93454;-72
2022/05/30 03:15:43;;;;;;;2.53;1.58;;;;;;;;;;4997402;28;93153;-72
2022/05/30 03:18:09;;;;;;;5.60;1.80;;;;;;;;;;4995042;28;92758;-72
2022/05/30 03:20:36;;;;;;;5.13;1.55;;;;;;;;;;5014582;28;92567;-72
2022/05/30 03:23:02;;;;;;;3.30;1.50;;;;;;;;;;5014912;28;94053;-72
2022/05/30 03:25:29;;;;;;;7.75;2.13;;;;;;;;;;5024468;28;95940;-72
2022/05/30 03:27:56;;;;;;;5.40;1.80;;;;;;;;;;5008662;28;92552;-72
2022/05/30 03:30:23;;;;;;;4.78;1.73;;;;;;;;;;5014059;28;94336;-72
2022/05/30 03:32:49;;;;;;;7.25;1.90;;;;;;;;;;5016337;28;94972;-72
2022/05/30 03:35:16;;;;;;;2.55;1.50;;;;;;;;;;5013524;28;92495;-72
2022/05/30 03:37:43;;;;;;;4.30;1.70;;;;;;;;;;5013058;28;93775;-72
2022/05/30 03:40:11;;;;;;;4.53;1.70;;;;;;;;;;5014190;28;92484;-72
2022/05/30 03:42:37;;;;;;;3.22;1.52;;;;;;;;;;5014801;28;92934;-72
2022/05/30 03:45:05;;;;;;;6.32;1.70;;;;;;;;;;4996485;28;94456;-71
2022/05/30 03:47:35;;;;;;;3.58;1.70;;;;;;;;;;5011076;28;92494;-72
2022/05/30 03:50:01;;;;;;;3.47;1.60;;;;;;;;;;5011027;28;94909;-72
2022/05/30 03:52:27;;;;;;;2.40;1.52;;;;;;;;;;5013423;28;93418;-72
2022/05/30 03:54:54;;;;;;;10.07;2.20;;;;;;;;;;4999253;28;93910;-72
2022/05/30 03:57:20;;;;;;;3.35;1.80;;;;;;;;;;5010934;28;93748;-73
2022/05/30 03:59:47;;;;;;;4.25;1.70;;;;;;;;;;5013788;28;92470;-72
2022/05/30 04:02:13;;;;;;;2.75;1.77;;;;;;;;;;5014084;28;93422;-72
2022/05/30 04:04:39;;;;;;;4.43;1.73;;;;;;;;;;5014019;28;94273;-72
2022/05/30 04:07:06;;;;;;;4.13;1.65;;;;;;;;;;5013232;28;91719;-72
2022/05/30 04:09:32;;;;;;;6.03;1.58;;;;;;;;;;5012491;28;92571;-73
2022/05/30 04:11:58;;;;;;;8.30;1.77;;;;;;;;;;5013032;28;93818;-72
2022/05/30 04:14:25;;;;;;;2.60;1.40;;;;;;;;;;5003158;28;95270;-72
2022/05/30 04:16:51;;;;;;;2.42;1.50;;;;;;;;;;4997405;28;95505;-72
2022/05/30 04:19:17;;;;;;;4.63;1.40;;;;;;;;;;5011225;28;92593;-72
2022/05/30 04:21:43;;;;;;;6.00;1.50;;;;;;;;;;5012440;28;93153;-72
2022/05/30 04:24:10;;;;;;;2.42;1.52;;;;;;;;;;5014899;28;94910;-72
2022/05/30 04:26:37;;;;;;;5.13;1.75;;;;;;;;;;5008382;28;92561;-71
2022/05/30 04:29:04;;;;;;;4.65;1.67;;;;;;;;;;5015378;28;94244;-73
2022/05/30 04:31:30;;;;;;;2.38;1.38;;;;;;;;;;5015851;28;92843;-72
2022/05/30 04:33:57;;;;;;;2.13;1.50;;;;;;;;;;4992435;28;93582;-72
2022/05/30 04:36:23;;;;;;;2.45;1.75;;;;;;;;;;4998174;28;92882;-72
2022/05/30 04:38:49;;;;;;;3.25;1.88;;;;;;;;;;5013232;28;95929;-71
2022/05/30 04:41:16;;;;;;;6.10;1.60;;;;;;;;;;5016834;28;95690;-72
2022/05/30 04:43:42;;;;;;;3.90;1.83;;;;;;;;;;5014205;28;93765;-72
2022/05/30 04:46:13;;;;;;;4.80;1.67;;;;;;;;;;4999392;28;92471;-74
2022/05/30 04:48:40;;;;;;;5.90;2.10;;;;;;;;;;5001905;28;93307;-72
2022/05/30 04:51:06;;;;;;;7.55;2.10;;;;;;;;;;5015664;28;93422;-72
2022/05/30 04:53:33;;;;;;;7.18;2.03;;;;;;;;;;5014772;28;92528;-72
2022/05/30 04:56:00;;;;;;;5.03;2.33;;;;;;;;;;5015423;28;93489;-72
2022/05/30 04:58:30;;;;;;;4.55;1.83;;;;;;;;;;5013143;28;92454;-72
2022/05/30 05:00:57;;;;;;;7.68;2.10;;;;;;;;;;4995884;28;92485;-71
2022/05/30 05:03:24;;;;;;;13.77;2.33;;;;;;;;;;5003793;28;95882;-71
2022/05/30 05:05:50;;;;;;;11.82;2.22;;;;;;;;;;5015935;28;92570;-71
2022/05/30 05:08:16;;;;;;;4.82;2.05;;;;;;;;;;5013412;28;93489;-72
2022/05/30 05:11:01;;;;;;;9.48;2.33;;;;;;;;;;5016378;28;93531;-71
2022/05/30 05:13:27;;;;;;;12.45;2.60;;;;;;;;;;5017226;28;92501;-71
2022/05/30 05:15:57;;;;;;;4.22;1.88;;;;;;;;;;5016716;28;93242;-72
2022/05/30 05:18:23;;;;;;;14.18;2.80;;;;;;;;;;5012937;28;93552;-72
2022/05/30 05:20:49;;;;;;;7.30;2.20;;;;;;;;;;5016874;28;91826;-71
2022/05/30 05:23:16;;;;;;;11.85;2.88;;;;;;;;;;5000491;28;92489;-72
2022/05/30 05:25:42;;;;;;;9.85;2.42;;;;;;;;;;5012009;28;92554;-72
2022/05/30 05:28:08;;;;;;;8.13;2.60;;;;;;;;;;5014027;28;94969;-72
2022/05/30 05:30:35;;;;;;;11.63;3.03;;;;;;;;;;5015993;28;93486;-72
2022/05/30 05:33:01;;;;;;;6.75;2.20;;;;;;;;;;5015037;28;92552;-72
2022/05/30 05:35:27;;;;;;;13.32;2.72;;;;;;;;;;5015182;28;93167;-72
2022/05/30 05:37:55;;;;;;;15.25;2.92;;;;;;;;;;5008285;28;94349;-74
2022/05/30 05:40:21;;;;;;;7.22;2.40;;;;;;;;;;5011111;28;92462;-73
2022/05/30 05:42:48;;;;;;;11.45;2.70;;;;;;;;;;5018176;28;96498;-73
2022/05/30 05:45:14;;;;;;;10.15;2.30;;;;;;;;;;4999461;28;91797;-73
2022/05/30 05:47:40;;;;;;;12.82;3.13;;;;;;;;;;4993269;28;96349;-73
2022/05/30 05:50:07;;;;;;;12.48;2.40;;;;;;;;;;5008284;28;94302;-72
2022/05/30 05:52:33;;;;;;;6.20;2.30;;;;;;;;;;5009678;28;94843;-72
2022/05/30 05:55:00;;;;;;;6.82;2.25;;;;;;;;;;4998446;28;95729;-72
2022/05/30 05:57:26;;;;;;;6.57;2.30;;;;;;;;;;5011118;28;93603;-72
2022/05/30 05:59:52;;;;;;;5.50;2.00;;;;;;;;;;5014021;28;93906;-72
2022/05/30 06:02:18;;;;;;;7.20;2.47;;;;;;;;;;5015741;28;93209;-73
2022/05/30 06:04:45;;;;;;;9.55;2.17;;;;;;;;;;5001396;28;93254;-73
2022/05/30 06:07:12;;;;;;;15.10;3.28;;;;;;;;;;5015643;28;93532;-73
2022/05/30 06:09:39;;;;;;;19.50;2.45;;;;;;;;;;4999356;28;93036;-73
2022/05/30 06:12:07;;;;;;;7.70;2.40;;;;;;;;;;4997167;28;92513;-73
2022/05/30 06:14:34;;;;;;;9.00;2.05;;;;;;;;;;5012342;28;93264;-73
2022/05/30 06:17:01;;;;;;;12.75;2.50;;;;;;;;;;5011913;28;96403;-72
2022/05/30 06:19:27;;;;;;;11.88;2.25;;;;;;;;;;5017053;28;92436;-74
2022/05/30 06:21:53;;;;;;;7.18;1.50;;;;;;;;;;5017216;28;93631;-72
2022/05/30 06:24:20;;;;;;;5.28;1.85;;;;;;;;;;5027256;28;93348;-73
2022/05/30 06:26:46;;;;;;;9.55;1.73;;;;;;;;;;5015488;28;93025;-72
2022/05/30 06:29:13;;;;;;;4.30;1.35;;;;;;;;;;5014642;28;93425;-72
2022/05/30 06:31:40;;;;;;;11.15;1.55;;;;;;;;;;4998273;28;92435;-71
2022/05/30 06:34:06;;;;;;;6.40;1.30;;;;;;;;;;4998333;28;93137;-74
2022/05/30 06:36:33;;;;;;;7.38;1.35;;;;;;;;;;4996451;28;94410;-72
2022/05/30 06:39:00;;;;;;;4.75;1.20;;;;;;;;;;5016424;28;92471;-72
2022/05/30 06:41:29;;;;;;;6.97;1.08;;;;;;;;;;5013606;28;94831;-72
2022/05/30 06:43:57;;;;;;;5.07;1.35;;;;;;;;;;5014740;28;93658;-72
2022/05/30 06:46:23;;;;;;;8.85;1.92;;;;;;;;;;5014828;28;92534;-72
2022/05/30 06:48:56;;;;;;;7.22;1.35;;;;;;;;;;5017689;28;93475;-72
2022/05/30 06:51:23;;;;;;;6.60;1.52;;;;;;;;;;5014894;28;92490;-72
2022/05/30 06:53:50;;;;;;;6.45;1.27;;;;;;;;;;4997576;28;93867;-72
2022/05/30 06:56:17;;;;;;;7.38;1.60;;;;;;;;;;5014453;28;93328;-72
2022/05/30 06:58:45;;;;;;;2.75;1.10;;;;;;;;;;5015313;28;92911;-72
2022/05/30 07:01:11;;;;;;;12.60;1.38;;;;;;;;;;5013970;28;92433;-72
2022/05/30 07:03:38;;;;;;;7.53;1.20;;;;;;;;;;5013986;28;93516;-73
2022/05/30 07:06:09;;;;;;;4.53;1.40;;;;;;;;;;4994450;28;95196;-72
2022/05/30 07:08:35;;;;;;;7.20;1.60;;;;;;;;;;5012735;28;95364;-72
2022/05/30 07:11:02;;;;;;;6.93;1.23;;;;;;;;;;4998388;28;93660;-72
2022/05/30 07:13:29;;;;;;;7.63;1.50;;;;;;;;;;5015585;28;92957;-72
2022/05/30 07:15:55;;;;;;;6.97;1.02;;;;;;;;;;5013494;28;94527;-71
2022/05/30 07:18:22;;;;;;;6.88;1.00;;;;;;;;;;4997719;28;92758;-71
2022/05/30 07:20:54;;;;;;;8.68;1.13;;;;;;;;;;5015093;28;93146;-72
2022/05/30 07:23:21;;;;;;;4.47;0.98;;;;;;;;;;5015586;28;92778;-71
2022/05/30 07:25:47;;;;;;;8.95;1.20;;;;;;;;;;5013733;28;92663;-72
2022/05/30 07:28:13;;;;;;;8.07;1.30;;;;;;;;;;4994215;28;92927;-72
2022/05/30 07:30:40;;;;;;;4.57;1.00;;;;;;;;;;5013241;28;95808;-72
2022/05/30 07:33:07;;;;;;;13.20;3.53;;;;;;;;;;5017879;28;92776;-72
2022/05/30 07:35:34;;;;;;;2.85;0.98;;;;;;;;;;5012124;28;93580;-72
2022/05/30 07:38:00;;;;;;;9.63;1.10;;;;;;;;;;5012818;28;92416;-72
2022/05/30 07:40:26;;;;;;;2.15;0.75;;;;;;;;;;4994364;28;93873;-71
2022/05/30 07:42:55;;;;;;;5.82;1.42;;;;;;;;;;5014355;28;94129;-71
2022/05/30 07:45:22;;;;;;;3.92;1.00;;;;;;;;;;5012885;28;92482;-71
2022/05/30 07:47:48;;;;;;;8.57;1.45;;;;;;;;;;5014671;28;93135;-72
2022/05/30 07:50:14;;;;;;;6.50;1.38;;;;;;;;;;5013445;28;93512;-71
2022/05/30 07:52:41;;;;;;;10.90;2.40;;;;;;;;;;5012882;28;96621;-72
2022/05/30 07:55:07;;;;;;;7.85;2.10;;;;;;;;;;5006526;28;96156;-72
2022/05/30 07:58:07;;;;;;;5.38;1.50;;;;;;;;;;4991240;28;93079;-71
2022/05/30 08:00:29;;;;;;;2.25;1.10;;;;;;;;;;5009344;28;92909;-72
2022/05/30 08:02:55;;;;;;;4.00;1.20;;;;;;;;;;4979768;28;94267;-73
2022/05/30 08:05:22;;;;;;;7.82;1.15;;;;;;;;;;4992981;28;92506;-73
2022/05/30 08:07:48;;;;;;;9.73;1.00;;;;;;;;;;5006800;28;93501;-73
2022/05/30 08:10:16;;;;;;;5.03;1.30;;;;;;;;;;5005989;28;93474;-72
2022/05/30 08:12:42;;;;;;;6.38;1.25;;;;;;;;;;4992948;28;92186;-72
2022/05/30 08:15:09;;;;;;;3.58;0.80;;;;;;;;;;5012280;28;94237;-71
2022/05/30 08:17:35;;;;;;;11.88;1.42;;;;;;;;;;5009935;28;92487;-71
2022/05/30 08:20:03;;;;;;;4.80;1.23;;;;;;;;;;4992515;28;95082;-72
2022/05/30 08:22:31;;;;;;;2.28;0.90;;;;;;;;;;5006805;28;93974;-72
2022/05/30 08:24:57;;;;;;;6.28;1.10;;;;;;;;;;5018741;28;93113;-72
2022/05/30 08:27:24;;;;;;;2.35;1.13;;;;;;;;;;4989747;28;93281;-71
2022/05/30 08:29:50;;;;;;;4.55;0.95;;;;;;;;;;5009347;28;93604;-71
2022/05/30 08:32:17;;;;;;;5.07;1.33;;;;;;;;;;5005110;28;92456;-72
2022/05/30 08:34:43;;;;;;;6.45;1.25;;;;;;;;;;4995336;28;93373;-73
2022/05/30 08:37:09;;;;;;;6.80;1.75;;;;;;;;;;5015886;28;93012;-73
2022/05/30 08:42:28;;;;;;;2.95;0.88;;;;;;;;;;5009453;28;93550;-73
2022/05/30 08:44:55;;;;;;;9.68;1.05;;;;;;;;;;5009749;28;94985;-74
2022/05/30 08:47:28;;;;;;;8.13;0.90;;;;;;;;;;5013213;28;95644;-72
2022/05/30 08:49:57;;;;;;;5.07;0.80;;;;;;;;;;5013803;28;93829;-74
2022/05/30 08:52:29;;;;;;;3.33;0.90;;;;;;;;;;5010505;28;92515;-73
2022/05/30 08:55:14;;;;;;;2.83;0.90;;;;;;;;;;4994740;28;93154;-73
2022/05/30 08:57:51;;;;;;;3.80;0.77;;;;;;;;;;5010524;28;93553;-73
2022/05/30 09:00:17;;;;;;;5.80;1.20;;;;;;;;;;4999245;28;92457;-73
2022/05/30 09:02:46;;;;;;;2.63;0.93;;;;;;;;;;5013649;28;93754;-73
2022/05/30 09:05:17;;;;;;;5.07;1.25;;;;;;;;;;4993582;28;92632;-73
2022/05/30 09:08:06;;;;;;;5.55;1.10;;;;;;;;;;5009622;28;94740;-72
2022/05/30 09:10:40;;;;;;;11.27;1.10;;;;;;;;;;5011131;28;95916;-72
2022/05/30 09:13:17;;;;;;;8.13;1.58;;;;;;;;;;4997636;28;92524;-72
2022/05/30 09:16:03;;;;;;;5.03;1.23;;;;;;;;;;5015012;28;93142;-72
2022/05/30 09:18:35;;;;;;;3.55;1.10;;;;;;;;;;5014822;28;94755;-72
2022/05/30 09:21:02;;;;;;;9.38;1.80;;;;;;;;;;5016056;28;92778;-72
2022/05/30 09:23:28;;;;;;;4.07;1.15;;;;;;;;;;5013847;28;94725;-73
2022/05/30 09:26:00;;;;;;;7.88;1.13;;;;;;;;;;5015928;28;92452;-73
2022/05/30 09:28:31;;;;;;;4.68;1.20;;;;;;;;;;5005123;28;92704;-72
2022/05/30 09:30:57;;;;;;;6.95;1.30;;;;;;;;;;5014196;28;93740;-72
2022/05/30 09:33:34;;;;;;;5.38;1.67;;;;;;;;;;5012122;28;92517;-72
2022/05/30 09:36:18;;;;;;;12.38;1.30;;;;;;;;;;4997367;28;94805;-72
2022/05/30 09:38:47;;;;;;;6.93;1.88;;;;;;;;;;5015578;28;95654;-72
2022/05/30 09:41:24;;;;;;;5.45;2.05;;;;;;;;;;5015177;28;92479;-72
2022/05/30 09:43:53;;;;;;;8.25;1.90;;;;;;;;;;5018714;28;93125;-72
2022/05/30 09:46:25;;;;;;;9.43;1.85;;;;;;;;;;5012490;28;92676;-72
2022/05/30 09:49:03;;;;;;;4.53;1.40;;;;;;;;;;4986706;28;93348;-72
2022/05/30 09:51:35;;;;;;;10.73;1.95;;;;;;;;;;4992664;28;94401;-71
2022/05/30 09:54:01;;;;;;;12.45;1.65;;;;;;;;;;4995961;28;91677;-71
2022/05/30 09:56:29;;;;;;;5.93;1.20;;;;;;;;;;4996208;28;92446;-71
2022/05/30 09:59:00;;;;;;;6.55;1.30;;;;;;;;;;5016922;28;93536;-71
2022/05/30 10:01:27;;;;;;;12.90;1.50;;;;;;;;;;4996665;28;95070;-71
2022/05/30 10:03:59;;;;;;;10.60;1.60;;;;;;;;;;5015320;28;95450;-71
2022/05/30 10:06:27;;;;;;;3.95;1.20;;;;;;;;;;5018016;28;94650;-72
2022/05/30 10:09:07;;;;;;;8.07;1.63;;;;;;;;;;5015063;28;93301;-71
2022/05/30 10:11:35;;;;;;;3.78;1.50;;;;;;;;;;4997000;28;94378;-71
2022/05/30 10:14:18;;;;;;;6.47;2.25;;;;;;;;;;5015049;28;92493;-71
2022/05/30 10:16:45;;;;;;;6.80;2.10;;;;;;;;;;4997775;28;93301;-71
2022/05/30 10:19:22;;;;;;;6.38;1.58;;;;;;;;;;5015347;28;92663;-71
2022/05/30 10:30:41;;;;;;;6.35;1.25;;;;;;;;;;5018043;28;93041;-71
2022/05/30 10:33:12;;;;;;;8.50;1.35;;;;;;;;;;4997519;28;93475;-72
2022/05/30 10:35:41;;;;;;;4.68;1.17;;;;;;;;;;5014218;28;93159;-72
2022/05/30 10:38:20;;;;;;;9.85;1.90;;;;;;;;;;5014221;28;94097;-71
2022/05/30 10:41:00;;;;;;;7.60;1.40;;;;;;;;;;5013264;28;93362;-72
2022/05/30 10:43:33;;;;;;;8.37;1.60;;;;;;;;;;5013492;28;92596;-71
2022/05/30 10:46:06;;;;;;;6.97;1.52;;;;;;;;;;4995265;28;93069;-71
2022/05/30 10:48:37;;;;;;;5.65;1.02;;;;;;;;;;5001230;28;94093;-71
2022/05/30 10:51:05;;;;;;;8.10;1.30;;;;;;;;;;5013692;28;94448;-71
2022/05/30 10:53:37;;;;;;;3.28;1.00;;;;;;;;;;5013399;28;95668;-72
2022/05/30 10:56:15;;;;;;;13.38;0.90;;;;;;;;;;5015746;28;92469;-71
2022/05/30 10:58:46;;;;;;;2.38;0.77;;;;;;;;;;5015079;28;92498;-71
2022/05/30 11:01:19;;;;;;;7.90;1.17;;;;;;;;;;5015435;28;93494;-71
2022/05/30 11:03:50;;;;;;;5.03;1.00;;;;;;;;;;5013869;28;94280;-71
2022/05/30 11:06:26;;;;;;;7.72;1.42;;;;;;;;;;5014705;28;93148;-72
2022/05/30 11:08:59;;;;;;;4.93;1.08;;;;;;;;;;4979796;28;93749;-71
2022/05/30 11:11:43;;;;;;;3.92;0.95;;;;;;;;;;5014178;28;91658;-72
2022/05/30 11:14:15;;;;;;;5.50;1.50;;;;;;;;;;4995153;28;92512;-71
2022/05/30 11:16:47;;;;;;;10.15;1.45;;;;;;;;;;5018121;28;93472;-71
2022/05/30 11:19:18;;;;;;;4.15;0.98;;;;;;;;;;5013727;28;94864;-71
2022/05/30 11:21:50;;;;;;;5.15;1.60;;;;;;;;;;4995392;28;93448;-72
2022/05/30 11:24:16;;;;;;;8.10;1.02;;;;;;;;;;5017416;28;94095;-71
2022/05/30 11:27:03;;;;;;;4.25;1.20;;;;;;;;;;5015217;28;93209;-71
2022/05/30 11:29:47;;;;;;;6.15;1.10;;;;;;;;;;5010045;28;93464;-71
2022/05/30 11:32:14;;;;;;;9.57;1.15;;;;;;;;;;5010649;28;93183;-71
2022/05/30 11:34:59;;;;;;;5.90;0.80;;;;;;;;;;5010889;28;93534;-71
2022/05/30 11:37:44;;;;;;;8.38;1.48;;;;;;;;;;4995438;28;93089;-71
2022/05/30 11:40:10;;;;;;;10.38;1.40;;;;;;;;;;5012321;28;92967;-72
2022/05/30 11:42:51;;;;;;;7.03;1.30;;;;;;;;;;5007184;28;93783;-72
2022/05/30 11:45:21;;;;;;;4.97;1.20;;;;;;;;;;5012074;28;94898;-71
2022/05/30 11:47:57;;;;;;;7.30;1.23;;;;;;;;;;5011460;28;95287;-72
2022/05/30 11:50:42;;;;;;;6.40;0.90;;;;;;;;;;5007964;28;93223;-72
2022/05/30 11:53:09;;;;;;;4.22;1.00;;;;;;;;;;5014008;28;92449;-71
2022/05/30 11:55:41;;;;;;;8.25;1.30;;;;;;;;;;5012722;28;93211;-72
2022/05/30 11:58:07;;;;;;;5.38;1.73;;;;;;;;;;5011889;28;93327;-71
2022/05/30 12:00:35;;;;;;;2.75;1.17;;;;;;;;;;5012931;28;92469;-72
2022/05/30 12:03:16;;;;;;;2.85;1.00;;;;;;;;;;5011756;28;93044;-71
2022/05/30 12:05:57;;;;;;;3.80;0.80;;;;;;;;;;5014267;28;92418;-71
2022/05/30 12:08:42;;;;;;;2.45;0.80;;;;;;;;;;5009863;28;93480;-72
2022/05/30 12:11:27;;;;;;;3.60;1.00;;;;;;;;;;5008211;28;95734;-71
2022/05/30 12:14:06;;;;;;;8.13;1.02;;;;;;;;;;5011465;28;92619;-71
2022/05/30 12:16:55;;;;;;;4.03;1.08;;;;;;;;;;4986433;28;93714;-72
2022/05/30 12:25:29;;;;;;;3.33;1.00;;;;;;;;;;5023695;28;93331;-71
2022/05/30 12:27:56;;;;;;;5.10;0.80;;;;;;;;;;5011513;28;92361;-71
2022/05/30 12:30:34;;;;;;;6.57;1.15;;;;;;;;;;4995232;28;93184;-71
2022/05/30 12:33:01;;;;;;;3.25;1.08;;;;;;;;;;4995308;28;93719;-71
2022/05/30 12:35:29;;;;;;;1.70;0.85;;;;;;;;;;5013861;28;92533;-71
2022/05/30 12:37:59;;;;;;;6.20;0.93;;;;;;;;;;4994615;28;94905;-71
2022/05/30 12:40:26;;;;;;;5.35;1.30;;;;;;;;;;4993554;28;93326;-71
2022/05/30 12:43:16;;;;;;;5.93;1.00;;;;;;;;;;4995545;28;92570;-72
2022/05/30 12:45:54;;;;;;;2.95;0.77;;;;;;;;;;5014587;28;93280;-72
2022/05/30 12:48:38;;;;;;;7.22;1.48;;;;;;;;;;5008492;28;93865;-73
2022/05/30 12:51:26;;;;;;;3.03;1.05;;;;;;;;;;5015952;28;93026;-73
2022/05/30 12:53:55;;;;;;;7.10;1.10;;;;;;;;;;5017166;28;93522;-72
2022/05/30 12:56:36;;;;;;;2.90;0.80;;;;;;;;;;5014626;28;91674;-72
2022/05/30 12:59:02;;;;;;;4.13;0.68;;;;;;;;;;5017562;28;92586;-73
2022/05/30 13:01:31;;;;;;;4.75;0.88;;;;;;;;;;5015571;28;93668;-73
2022/05/30 13:04:06;;;;;;;5.10;0.80;;;;;;;;;;5015477;28;94864;-73
2022/05/30 13:06:41;;;;;;;4.78;1.08;;;;;;;;;;5016873;28;96168;-73
2022/05/30 13:09:30;;;;;;;2.30;0.93;;;;;;;;;;5013625;28;93274;-74
2022/05/30 13:11:59;;;;;;;3.15;1.02;;;;;;;;;;5017493;28;92551;-74
2022/05/30 13:14:39;;;;;;;4.00;0.95;;;;;;;;;;5015813;28;93226;-74
2022/05/30 13:17:18;;;;;;;5.00;1.05;;;;;;;;;;5008611;28;92467;-74
2022/05/30 13:19:52;;;;;;;2.83;0.93;;;;;;;;;;5017409;28;92912;-74
2022/05/30 13:22:41;;;;;;;3.22;0.85;;;;;;;;;;5015124;28;92844;-74
2022/05/30 13:25:10;;;;;;;3.67;0.90;;;;;;;;;;5001738;28;92556;-74
2022/05/30 13:27:36;;;;;;;3.05;0.80;;;;;;;;;;4997453;28;93177;-74
2022/05/30 13:30:04;;;;;;;4.57;0.95;;;;;;;;;;5013827;28;95633;-74
2022/05/30 13:32:31;;;;;;;2.78;0.98;;;;;;;;;;5009899;28;92521;-75
2022/05/30 13:34:59;;;;;;;6.95;1.13;;;;;;;;;;5017239;28;93344;-74
2022/05/30 13:37:29;;;;;;;2.00;0.70;;;;;;;;;;5013641;28;94018;-74
2022/05/30 13:39:58;;;;;;;3.85;1.20;;;;;;;;;;5016696;28;92995;-74
2022/05/30 13:42:45;;;;;;;22.08;2.08;;;;;;;;;;4999817;28;94078;-74
2022/05/30 13:45:24;;;;;;;4.25;1.10;;;;;;;;;;4998936;28;92881;-74
2022/05/30 13:48:00;;;;;;;5.95;1.13;;;;;;;;;;5012552;28;93277;-73
2022/05/30 13:50:46;;;;;;;3.17;0.93;;;;;;;;;;5015922;28;97239;-73
2022/05/30 13:53:14;;;;;;;41.53;2.13;;;;;;;;;;4998728;28;93922;-73
2022/05/30 13:55:49;;;;;;;10.23;1.92;;;;;;;;;;5005681;28;95255;-74
2022/05/30 13:58:16;;;;;;;4.97;1.10;;;;;;;;;;5014228;28;93600;-73
2022/05/30 14:00:43;;;;;;;9.57;1.27;;;;;;;;;;4995554;28;93312;-73
2022/05/30 14:03:09;;;;;;;6.65;1.17;;;;;;;;;;4995968;28;93306;-73
2022/05/30 14:05:38;;;;;;;3.38;1.10;;;;;;;;;;5016237;28;92422;-73
2022/05/30 14:08:10;;;;;;;5.25;1.15;;;;;;;;;;5011672;28;93105;-73
2022/05/30 14:10:42;;;;;;;2.10;1.00;;;;;;;;;;5016077;28;93721;-73
2022/05/30 14:13:31;;;;;;;3.33;0.95;;;;;;;;;;4994261;28;91857;-73
2022/05/30 14:16:07;;;;;;;4.05;1.20;;;;;;;;;;5009998;28;93189;-73
2022/05/30 14:18:45;;;;;;;3.20;1.00;;;;;;;;;;4998350;28;93315;-73
2022/05/30 14:21:16;;;;;;;3.22;1.38;;;;;;;;;;5013508;28;96529;-73
2022/05/30 14:23:42;;;;;;;5.65;1.20;;;;;;;;;;5022535;28;93872;-73
2022/05/30 14:26:11;;;;;;;6.63;1.42;;;;;;;;;;5032846;28;92494;-73
2022/05/30 14:28:52;;;;;;;2.53;0.88;;;;;;;;;;5007343;28;93895;-73
2022/05/30 14:31:20;;;;;;;5.50;1.15;;;;;;;;;;5003917;28;93496;-73
2022/05/30 14:33:53;;;;;;;3.92;0.75;;;;;;;;;;5016513;28;92418;-73
2022/05/30 14:36:24;;;;;;;2.30;0.98;;;;;;;;;;5011585;28;93469;-73
2022/05/30 14:38:50;;;;;;;11.50;1.23;;;;;;;;;;5011044;28;92630;-73
2022/05/30 14:41:20;;;;;;;10.23;1.30;;;;;;;;;;5018471;28;92530;-73
2022/05/30 14:43:48;;;;;;;2.72;1.05;;;;;;;;;;4995907;28;93945;-72
2022/05/30 14:46:18;;;;;;;7.72;1.27;;;;;;;;;;4994188;28;96437;-73
2022/05/30 14:48:46;;;;;;;3.33;1.10;;;;;;;;;;5014069;28;95495;-73
2022/05/30 14:51:24;;;;;;;2.33;0.95;;;;;;;;;;5015147;28;93450;-73
2022/05/30 14:53:51;;;;;;;6.50;1.30;;;;;;;;;;4993934;28;92849;-73
2022/05/30 14:56:25;;;;;;;5.70;1.65;;;;;;;;;;5014316;28;93483;-73
2022/05/30 14:58:52;;;;;;;3.42;1.17;;;;;;;;;;5014906;28;93857;-73
2022/05/30 15:01:40;;;;;;;3.10;1.30;;;;;;;;;;5015633;28;92539;-73
2022/05/30 15:04:10;;;;;;;6.30;1.50;;;;;;;;;;5011824;28;93212;-73
2022/05/30 15:06:39;;;;;;;3.80;1.40;;;;;;;;;;5014254;28;92926;-73
2022/05/30 15:09:07;;;;;;;6.13;2.17;;;;;;;;;;5010628;28;93649;-73
2022/05/30 15:11:33;;;;;;;2.95;1.65;;;;;;;;;;5012225;28;95644;-73
2022/05/30 15:14:01;;;;;;;4.18;1.55;;;;;;;;;;5006684;28;92494;-73
2022/05/30 15:16:27;;;;;;;7.22;2.00;;;;;;;;;;5013223;28;92935;-73
2022/05/30 15:18:53;;;;;;;5.18;2.10;;;;;;;;;;4993297;28;93587;-73
2022/05/30 15:21:21;;;;;;;2.67;1.73;;;;;;;;;;5011453;28;92797;-73
2022/05/30 15:23:49;;;;;;;8.77;2.08;;;;;;;;;;4994914;28;92991;-73